sensor_id;sensor_type;location;lat;lon;timestamp;P1;durP1;ratioP1;P2;durP2;ratioP2
19386;SDS011;9829;48.142;16.382;2022-07-09T00:01:28;4.85;;;3.45;;
19386;SDS011;9829;48.142;16.382;2022-07-09T00:03:55;5.07;;;3.00;;
19386;SDS011;9829;48.142;16.382;2022-07-09T00:06:22;4.07;;;2.70;;
19386;SDS011;9829;48.142;16.382;2022-07-09T00:08:49;4.10;;;3.10;;
19386;SDS011;9829;48.142;16.382;2022-07-09T00:11:17;4.15;;;2.88;;
19386;SDS011;9829;48.142;16.382;2022-07-09T00:13:44;3.13;;;2.42;;
19386;SDS011;9829;48.142;16.382;2022-07-09T00:16:11;4.82;;;2.47;;
19386;SDS011;9829;48.142;16.382;2022-07-09T00:18:37;2.67;;;2.47;;
19386;SDS011;9829;48.142;16.382;2022-07-09T00:21:04;4.20;;;2.72;;
19386;SDS011;9829;48.142;16.382;2022-07-09T00:23:31;4.80;;;2.60;;
19386;SDS011;9829;48.142;16.382;2022-07-09T00:25:58;7.60;;;2.67;;
19386;SDS011;9829;48.142;16.382;2022-07-09T00:28:26;6.30;;;2.75;;
19386;SDS011;9829;48.142;16.382;2022-07-09T00:30:53;5.03;;;2.53;;
19386;SDS011;9829;48.142;16.382;2022-07-09T00:33:20;9.55;;;2.95;;
19386;SDS011;9829;48.142;16.382;2022-07-09T00:35:47;5.82;;;2.70;;
19386;SDS011;9829;48.142;16.382;2022-07-09T00:38:14;7.72;;;2.75;;
19386;SDS011;9829;48.142;16.382;2022-07-09T00:40:41;6.32;;;2.40;;
19386;SDS011;9829;48.142;16.382;2022-07-09T00:43:17;7.93;;;2.97;;
19386;SDS011;9829;48.142;16.382;2022-07-09T00:45:46;5.15;;;2.63;;
19386;SDS011;9829;48.142;16.382;2022-07-09T00:48:13;3.40;;;2.40;;
19386;SDS011;9829;48.142;16.382;2022-07-09T00:50:41;4.20;;;2.33;;
19386;SDS011;9829;48.142;16.382;2022-07-09T00:53:09;3.05;;;2.20;;
19386;SDS011;9829;48.142;16.382;2022-07-09T00:55:38;5.07;;;2.50;;
19386;SDS011;9829;48.142;16.382;2022-07-09T00:58:05;5.30;;;2.60;;
19386;SDS011;9829;48.142;16.382;2022-07-09T01:00:34;7.93;;;2.63;;
19386;SDS011;9829;48.142;16.382;2022-07-09T01:03:02;3.03;;;2.25;;
19386;SDS011;9829;48.142;16.382;2022-07-09T01:05:29;3.20;;;2.20;;
19386;SDS011;9829;48.142;16.382;2022-07-09T01:08:00;7.07;;;2.50;;
19386;SDS011;9829;48.142;16.382;2022-07-09T01:10:28;3.53;;;2.28;;
19386;SDS011;9829;48.142;16.382;2022-07-09T01:12:55;6.93;;;2.17;;
19386;SDS011;9829;48.142;16.382;2022-07-09T01:15:22;4.75;;;2.70;;
19386;SDS011;9829;48.142;16.382;2022-07-09T01:17:49;3.83;;;2.67;;
19386;SDS011;9829;48.142;16.382;2022-07-09T01:20:19;3.78;;;2.40;;
19386;SDS011;9829;48.142;16.382;2022-07-09T01:22:48;5.85;;;2.42;;
19386;SDS011;9829;48.142;16.382;2022-07-09T01:25:16;3.20;;;2.72;;
19386;SDS011;9829;48.142;16.382;2022-07-09T01:27:43;4.40;;;2.67;;
19386;SDS011;9829;48.142;16.382;2022-07-09T01:30:11;4.38;;;2.50;;
19386;SDS011;9829;48.142;16.382;2022-07-09T01:32:48;6.80;;;2.63;;
19386;SDS011;9829;48.142;16.382;2022-07-09T01:35:15;2.88;;;2.40;;
19386;SDS011;9829;48.142;16.382;2022-07-09T01:37:44;2.88;;;1.92;;
19386;SDS011;9829;48.142;16.382;2022-07-09T01:40:11;2.85;;;2.28;;
19386;SDS011;9829;48.142;16.382;2022-07-09T01:42:38;4.60;;;2.30;;
19386;SDS011;9829;48.142;16.382;2022-07-09T01:45:06;6.28;;;2.45;;
19386;SDS011;9829;48.142;16.382;2022-07-09T01:47:33;4.93;;;2.17;;
19386;SDS011;9829;48.142;16.382;2022-07-09T01:50:00;3.65;;;2.10;;
19386;SDS011;9829;48.142;16.382;2022-07-09T01:52:27;3.92;;;2.00;;
19386;SDS011;9829;48.142;16.382;2022-07-09T01:54:56;3.50;;;2.22;;
19386;SDS011;9829;48.142;16.382;2022-07-09T01:57:23;6.90;;;2.50;;
19386;SDS011;9829;48.142;16.382;2022-07-09T01:59:50;4.40;;;2.30;;
19386;SDS011;9829;48.142;16.382;2022-07-09T02:02:17;5.85;;;2.08;;
19386;SDS011;9829;48.142;16.382;2022-07-09T02:04:44;5.22;;;2.20;;
19386;SDS011;9829;48.142;16.382;2022-07-09T02:07:11;4.78;;;2.20;;
19386;SDS011;9829;48.142;16.382;2022-07-09T02:09:38;5.05;;;2.08;;
19386;SDS011;9829;48.142;16.382;2022-07-09T02:12:07;2.78;;;2.15;;
19386;SDS011;9829;48.142;16.382;2022-07-09T02:14:35;4.13;;;2.47;;
19386;SDS011;9829;48.142;16.382;2022-07-09T02:17:02;3.40;;;1.90;;
19386;SDS011;9829;48.142;16.382;2022-07-09T02:19:29;4.70;;;2.22;;
19386;SDS011;9829;48.142;16.382;2022-07-09T02:21:56;5.35;;;2.30;;
19386;SDS011;9829;48.142;16.382;2022-07-09T02:24:22;3.85;;;1.92;;
19386;SDS011;9829;48.142;16.382;2022-07-09T02:26:49;5.47;;;2.38;;
19386;SDS011;9829;48.142;16.382;2022-07-09T02:29:17;5.47;;;1.95;;
19386;SDS011;9829;48.142;16.382;2022-07-09T02:31:44;7.13;;;1.88;;
19386;SDS011;9829;48.142;16.382;2022-07-09T02:34:11;3.03;;;1.92;;
19386;SDS011;9829;48.142;16.382;2022-07-09T02:36:38;6.30;;;2.42;;
19386;SDS011;9829;48.142;16.382;2022-07-09T02:39:05;3.10;;;2.03;;
19386;SDS011;9829;48.142;16.382;2022-07-09T02:41:32;3.17;;;1.90;;
19386;SDS011;9829;48.142;16.382;2022-07-09T02:43:58;3.28;;;2.20;;
19386;SDS011;9829;48.142;16.382;2022-07-09T02:46:27;5.07;;;2.25;;
19386;SDS011;9829;48.142;16.382;2022-07-09T02:48:54;3.92;;;2.17;;
19386;SDS011;9829;48.142;16.382;2022-07-09T02:51:20;4.18;;;2.10;;
19386;SDS011;9829;48.142;16.382;2022-07-09T02:53:47;5.82;;;2.00;;
19386;SDS011;9829;48.142;16.382;2022-07-09T02:56:14;3.15;;;2.08;;
19386;SDS011;9829;48.142;16.382;2022-07-09T02:58:41;4.22;;;1.90;;
19386;SDS011;9829;48.142;16.382;2022-07-09T03:03:41;2.88;;;1.75;;
19386;SDS011;9829;48.142;16.382;2022-07-09T03:06:07;3.15;;;1.95;;
19386;SDS011;9829;48.142;16.382;2022-07-09T03:08:34;3.88;;;2.08;;
19386;SDS011;9829;48.142;16.382;2022-07-09T03:11:01;5.38;;;1.60;;
19386;SDS011;9829;48.142;16.382;2022-07-09T03:13:29;2.33;;;1.77;;
19386;SDS011;9829;48.142;16.382;2022-07-09T03:15:56;8.60;;;1.70;;
19386;SDS011;9829;48.142;16.382;2022-07-09T03:18:23;3.22;;;1.63;;
19386;SDS011;9829;48.142;16.382;2022-07-09T03:20:51;4.35;;;1.75;;
19386;SDS011;9829;48.142;16.382;2022-07-09T03:23:18;5.35;;;1.92;;
19386;SDS011;9829;48.142;16.382;2022-07-09T03:25:45;5.38;;;1.90;;
19386;SDS011;9829;48.142;16.382;2022-07-09T03:28:11;5.97;;;1.77;;
19386;SDS011;9829;48.142;16.382;2022-07-09T03:30:39;2.30;;;1.98;;
19386;SDS011;9829;48.142;16.382;2022-07-09T03:33:05;2.40;;;1.50;;
19386;SDS011;9829;48.142;16.382;2022-07-09T03:35:32;4.13;;;1.80;;
19386;SDS011;9829;48.142;16.382;2022-07-09T03:38:00;3.00;;;1.70;;
19386;SDS011;9829;48.142;16.382;2022-07-09T03:40:27;4.72;;;2.15;;
19386;SDS011;9829;48.142;16.382;2022-07-09T03:42:55;10.25;;;1.92;;
19386;SDS011;9829;48.142;16.382;2022-07-09T03:45:22;4.93;;;2.03;;
19386;SDS011;9829;48.142;16.382;2022-07-09T03:47:49;3.45;;;1.70;;
19386;SDS011;9829;48.142;16.382;2022-07-09T03:50:16;3.15;;;1.70;;
19386;SDS011;9829;48.142;16.382;2022-07-09T03:52:43;3.33;;;1.85;;
19386;SDS011;9829;48.142;16.382;2022-07-09T03:55:11;5.70;;;2.30;;
19386;SDS011;9829;48.142;16.382;2022-07-09T03:57:38;2.72;;;1.90;;
19386;SDS011;9829;48.142;16.382;2022-07-09T04:00:06;5.00;;;1.70;;
19386;SDS011;9829;48.142;16.382;2022-07-09T04:02:33;5.57;;;1.70;;
19386;SDS011;9829;48.142;16.382;2022-07-09T04:05:00;2.25;;;1.58;;
19386;SDS011;9829;48.142;16.382;2022-07-09T04:07:27;5.00;;;1.70;;
19386;SDS011;9829;48.142;16.382;2022-07-09T04:09:54;2.53;;;1.50;;
19386;SDS011;9829;48.142;16.382;2022-07-09T04:12:22;4.20;;;1.88;;
19386;SDS011;9829;48.142;16.382;2022-07-09T04:14:49;5.15;;;2.20;;
19386;SDS011;9829;48.142;16.382;2022-07-09T04:17:16;3.20;;;1.65;;
19386;SDS011;9829;48.142;16.382;2022-07-09T04:19:42;3.00;;;1.77;;
19386;SDS011;9829;48.142;16.382;2022-07-09T04:22:09;10.82;;;1.70;;
19386;SDS011;9829;48.142;16.382;2022-07-09T04:24:36;2.70;;;1.90;;
19386;SDS011;9829;48.142;16.382;2022-07-09T04:27:03;6.18;;;1.67;;
19386;SDS011;9829;48.142;16.382;2022-07-09T04:29:32;1.88;;;1.48;;
19386;SDS011;9829;48.142;16.382;2022-07-09T04:31:59;4.30;;;1.73;;
19386;SDS011;9829;48.142;16.382;2022-07-09T04:34:26;3.78;;;1.92;;
19386;SDS011;9829;48.142;16.382;2022-07-09T04:36:53;5.82;;;1.80;;
19386;SDS011;9829;48.142;16.382;2022-07-09T04:39:20;4.82;;;1.73;;
19386;SDS011;9829;48.142;16.382;2022-07-09T04:41:49;3.38;;;1.50;;
19386;SDS011;9829;48.142;16.382;2022-07-09T04:44:16;3.28;;;1.73;;
19386;SDS011;9829;48.142;16.382;2022-07-09T04:46:44;5.00;;;1.70;;
19386;SDS011;9829;48.142;16.382;2022-07-09T04:49:11;1.88;;;1.48;;
19386;SDS011;9829;48.142;16.382;2022-07-09T04:51:38;6.50;;;1.70;;
19386;SDS011;9829;48.142;16.382;2022-07-09T04:54:05;4.88;;;1.40;;
19386;SDS011;9829;48.142;16.382;2022-07-09T04:56:32;2.72;;;1.23;;
19386;SDS011;9829;48.142;16.382;2022-07-09T04:58:59;3.83;;;1.30;;
19386;SDS011;9829;48.142;16.382;2022-07-09T05:01:27;2.28;;;1.30;;
19386;SDS011;9829;48.142;16.382;2022-07-09T05:03:56;2.92;;;1.40;;
19386;SDS011;9829;48.142;16.382;2022-07-09T05:06:24;11.52;;;1.40;;
19386;SDS011;9829;48.142;16.382;2022-07-09T05:08:51;4.60;;;1.38;;
19386;SDS011;9829;48.142;16.382;2022-07-09T05:11:18;1.77;;;1.15;;
19386;SDS011;9829;48.142;16.382;2022-07-09T05:13:44;2.03;;;1.08;;
19386;SDS011;9829;48.142;16.382;2022-07-09T05:16:12;11.60;;;1.70;;
19386;SDS011;9829;48.142;16.382;2022-07-09T05:18:39;1.80;;;1.10;;
19386;SDS011;9829;48.142;16.382;2022-07-09T05:21:07;5.40;;;1.35;;
19386;SDS011;9829;48.142;16.382;2022-07-09T05:23:34;3.60;;;1.00;;
19386;SDS011;9829;48.142;16.382;2022-07-09T05:26:01;2.70;;;1.13;;
19386;SDS011;9829;48.142;16.382;2022-07-09T05:28:28;2.70;;;1.10;;
19386;SDS011;9829;48.142;16.382;2022-07-09T05:30:55;3.33;;;1.15;;
19386;SDS011;9829;48.142;16.382;2022-07-09T05:33:22;2.83;;;0.90;;
19386;SDS011;9829;48.142;16.382;2022-07-09T05:35:49;1.63;;;0.90;;
19386;SDS011;9829;48.142;16.382;2022-07-09T05:38:17;2.22;;;0.90;;
19386;SDS011;9829;48.142;16.382;2022-07-09T05:40:44;3.42;;;1.00;;
19386;SDS011;9829;48.142;16.382;2022-07-09T05:43:11;1.85;;;0.90;;
19386;SDS011;9829;48.142;16.382;2022-07-09T05:45:38;2.83;;;1.02;;
19386;SDS011;9829;48.142;16.382;2022-07-09T05:48:04;2.08;;;0.98;;
19386;SDS011;9829;48.142;16.382;2022-07-09T05:50:31;2.15;;;1.10;;
19386;SDS011;9829;48.142;16.382;2022-07-09T05:52:58;2.35;;;0.70;;
19386;SDS011;9829;48.142;16.382;2022-07-09T05:55:26;4.00;;;0.90;;
19386;SDS011;9829;48.142;16.382;2022-07-09T05:57:53;2.20;;;1.02;;
19386;SDS011;9829;48.142;16.382;2022-07-09T06:00:20;1.73;;;1.00;;
19386;SDS011;9829;48.142;16.382;2022-07-09T06:02:47;1.90;;;0.82;;
19386;SDS011;9829;48.142;16.382;2022-07-09T06:05:14;3.28;;;0.88;;
19386;SDS011;9829;48.142;16.382;2022-07-09T06:07:44;1.98;;;0.82;;
19386;SDS011;9829;48.142;16.382;2022-07-09T06:10:11;2.40;;;0.80;;
19386;SDS011;9829;48.142;16.382;2022-07-09T06:12:41;3.08;;;0.80;;
19386;SDS011;9829;48.142;16.382;2022-07-09T06:15:08;2.30;;;0.88;;
19386;SDS011;9829;48.142;16.382;2022-07-09T06:17:36;1.77;;;0.80;;
19386;SDS011;9829;48.142;16.382;2022-07-09T06:20:03;2.08;;;0.85;;
19386;SDS011;9829;48.142;16.382;2022-07-09T06:22:31;5.78;;;1.08;;
19386;SDS011;9829;48.142;16.382;2022-07-09T06:24:58;3.17;;;0.93;;
19386;SDS011;9829;48.142;16.382;2022-07-09T06:27:25;2.83;;;0.85;;
19386;SDS011;9829;48.142;16.382;2022-07-09T06:29:53;3.90;;;1.05;;
19386;SDS011;9829;48.142;16.382;2022-07-09T06:32:20;2.22;;;1.00;;
19386;SDS011;9829;48.142;16.382;2022-07-09T06:34:47;5.75;;;1.27;;
19386;SDS011;9829;48.142;16.382;2022-07-09T06:37:14;2.15;;;1.10;;
19386;SDS011;9829;48.142;16.382;2022-07-09T06:39:41;4.05;;;1.00;;
19386;SDS011;9829;48.142;16.382;2022-07-09T06:42:11;6.22;;;0.93;;
19386;SDS011;9829;48.142;16.382;2022-07-09T06:44:38;4.60;;;0.77;;
19386;SDS011;9829;48.142;16.382;2022-07-09T06:47:07;2.55;;;1.10;;
19386;SDS011;9829;48.142;16.382;2022-07-09T06:49:33;1.50;;;0.70;;
19386;SDS011;9829;48.142;16.382;2022-07-09T06:52:00;1.65;;;0.70;;
19386;SDS011;9829;48.142;16.382;2022-07-09T06:54:28;3.85;;;1.00;;
19386;SDS011;9829;48.142;16.382;2022-07-09T06:56:55;1.15;;;0.70;;
19386;SDS011;9829;48.142;16.382;2022-07-09T06:59:22;0.65;;;0.60;;
19386;SDS011;9829;48.142;16.382;2022-07-09T07:01:49;4.50;;;0.85;;
19386;SDS011;9829;48.142;16.382;2022-07-09T07:04:17;2.45;;;0.80;;
19386;SDS011;9829;48.142;16.382;2022-07-09T07:06:45;2.60;;;0.90;;
19386;SDS011;9829;48.142;16.382;2022-07-09T07:09:13;1.98;;;0.93;;
19386;SDS011;9829;48.142;16.382;2022-07-09T07:11:40;1.67;;;0.85;;
19386;SDS011;9829;48.142;16.382;2022-07-09T07:14:07;1.75;;;0.80;;
19386;SDS011;9829;48.142;16.382;2022-07-09T07:16:34;2.58;;;0.80;;
19386;SDS011;9829;48.142;16.382;2022-07-09T07:19:01;3.85;;;0.70;;
19386;SDS011;9829;48.142;16.382;2022-07-09T07:21:29;4.18;;;1.13;;
19386;SDS011;9829;48.142;16.382;2022-07-09T07:23:56;1.52;;;0.80;;
19386;SDS011;9829;48.142;16.382;2022-07-09T07:26:23;1.75;;;0.98;;
19386;SDS011;9829;48.142;16.382;2022-07-09T07:28:50;3.95;;;0.85;;
19386;SDS011;9829;48.142;16.382;2022-07-09T07:31:17;5.05;;;0.90;;
19386;SDS011;9829;48.142;16.382;2022-07-09T07:33:43;10.70;;;1.10;;
19386;SDS011;9829;48.142;16.382;2022-07-09T07:36:11;5.55;;;1.33;;
19386;SDS011;9829;48.142;16.382;2022-07-09T07:38:39;7.75;;;0.90;;
19386;SDS011;9829;48.142;16.382;2022-07-09T07:41:06;5.85;;;1.00;;
19386;SDS011;9829;48.142;16.382;2022-07-09T07:43:32;4.72;;;1.10;;
19386;SDS011;9829;48.142;16.382;2022-07-09T07:45:59;3.45;;;0.73;;
19386;SDS011;9829;48.142;16.382;2022-07-09T07:48:26;0.98;;;0.63;;
19386;SDS011;9829;48.142;16.382;2022-07-09T07:50:55;3.05;;;0.90;;
19386;SDS011;9829;48.142;16.382;2022-07-09T07:53:23;4.93;;;0.60;;
19386;SDS011;9829;48.142;16.382;2022-07-09T07:55:51;2.03;;;0.65;;
19386;SDS011;9829;48.142;16.382;2022-07-09T07:58:18;1.85;;;0.70;;
19386;SDS011;9829;48.142;16.382;2022-07-09T08:00:45;1.23;;;0.73;;
19386;SDS011;9829;48.142;16.382;2022-07-09T08:03:12;3.65;;;0.93;;
19386;SDS011;9829;48.142;16.382;2022-07-09T08:05:39;4.22;;;0.88;;
19386;SDS011;9829;48.142;16.382;2022-07-09T08:08:06;4.05;;;0.88;;
19386;SDS011;9829;48.142;16.382;2022-07-09T08:10:33;4.57;;;0.73;;
19386;SDS011;9829;48.142;16.382;2022-07-09T08:13:01;6.72;;;0.90;;
19386;SDS011;9829;48.142;16.382;2022-07-09T08:15:28;1.75;;;0.68;;
19386;SDS011;9829;48.142;16.382;2022-07-09T08:17:55;2.58;;;0.88;;
19386;SDS011;9829;48.142;16.382;2022-07-09T08:20:22;1.52;;;0.68;;
19386;SDS011;9829;48.142;16.382;2022-07-09T08:22:49;2.90;;;0.95;;
19386;SDS011;9829;48.142;16.382;2022-07-09T08:25:16;1.85;;;0.90;;
19386;SDS011;9829;48.142;16.382;2022-07-09T08:27:42;2.05;;;0.80;;
19386;SDS011;9829;48.142;16.382;2022-07-09T08:30:11;2.70;;;0.95;;
19386;SDS011;9829;48.142;16.382;2022-07-09T08:32:38;2.42;;;1.00;;
19386;SDS011;9829;48.142;16.382;2022-07-09T08:35:05;1.65;;;0.80;;
19386;SDS011;9829;48.142;16.382;2022-07-09T08:37:33;3.20;;;0.70;;
19386;SDS011;9829;48.142;16.382;2022-07-09T08:40:00;1.48;;;0.90;;
19386;SDS011;9829;48.142;16.382;2022-07-09T08:42:27;2.95;;;0.90;;
19386;SDS011;9829;48.142;16.382;2022-07-09T08:44:54;5.47;;;1.00;;
19386;SDS011;9829;48.142;16.382;2022-07-09T08:47:22;2.78;;;0.93;;
19386;SDS011;9829;48.142;16.382;2022-07-09T08:49:53;1.85;;;0.98;;
19386;SDS011;9829;48.142;16.382;2022-07-09T08:52:22;1.65;;;0.82;;
19386;SDS011;9829;48.142;16.382;2022-07-09T08:54:50;1.05;;;0.68;;
19386;SDS011;9829;48.142;16.382;2022-07-09T08:57:19;1.45;;;0.50;;
19386;SDS011;9829;48.142;16.382;2022-07-09T08:59:45;4.85;;;0.70;;
19386;SDS011;9829;48.142;16.382;2022-07-09T09:02:12;1.98;;;0.65;;
19386;SDS011;9829;48.142;16.382;2022-07-09T09:04:41;4.90;;;1.75;;
19386;SDS011;9829;48.142;16.382;2022-07-09T09:07:11;5.63;;;0.90;;
19386;SDS011;9829;48.142;16.382;2022-07-09T09:09:42;3.22;;;0.85;;
19386;SDS011;9829;48.142;16.382;2022-07-09T09:12:09;5.00;;;0.80;;
19386;SDS011;9829;48.142;16.382;2022-07-09T09:14:37;3.75;;;1.02;;
19386;SDS011;9829;48.142;16.382;2022-07-09T09:17:04;3.72;;;0.80;;
19386;SDS011;9829;48.142;16.382;2022-07-09T09:19:34;5.63;;;0.90;;
19386;SDS011;9829;48.142;16.382;2022-07-09T09:22:03;4.28;;;1.30;;
19386;SDS011;9829;48.142;16.382;2022-07-09T09:24:30;3.35;;;0.98;;
19386;SDS011;9829;48.142;16.382;2022-07-09T09:26:57;2.95;;;0.93;;
19386;SDS011;9829;48.142;16.382;2022-07-09T09:29:24;1.58;;;1.48;;
19386;SDS011;9829;48.142;16.382;2022-07-09T09:31:52;4.93;;;1.10;;
19386;SDS011;9829;48.142;16.382;2022-07-09T09:34:20;1.30;;;1.20;;
19386;SDS011;9829;48.142;16.382;2022-07-09T09:36:48;3.33;;;1.02;;
19386;SDS011;9829;48.142;16.382;2022-07-09T09:39:18;2.88;;;1.40;;
19386;SDS011;9829;48.142;16.382;2022-07-09T09:41:47;3.33;;;1.25;;
19386;SDS011;9829;48.142;16.382;2022-07-09T09:44:16;3.47;;;1.40;;
19386;SDS011;9829;48.142;16.382;2022-07-09T09:46:44;2.67;;;1.02;;
19386;SDS011;9829;48.142;16.382;2022-07-09T09:49:13;4.72;;;1.60;;
19386;SDS011;9829;48.142;16.382;2022-07-09T09:51:47;4.38;;;1.67;;
19386;SDS011;9829;48.142;16.382;2022-07-09T09:54:19;4.63;;;1.35;;
19386;SDS011;9829;48.142;16.382;2022-07-09T09:56:47;4.20;;;1.30;;
19386;SDS011;9829;48.142;16.382;2022-07-09T09:59:15;2.08;;;1.30;;
19386;SDS011;9829;48.142;16.382;2022-07-09T10:01:43;4.72;;;1.00;;
19386;SDS011;9829;48.142;16.382;2022-07-09T10:04:11;1.98;;;1.20;;
19386;SDS011;9829;48.142;16.382;2022-07-09T10:06:40;5.22;;;0.98;;
19386;SDS011;9829;48.142;16.382;2022-07-09T10:09:08;5.90;;;1.10;;
19386;SDS011;9829;48.142;16.382;2022-07-09T10:11:39;12.02;;;1.00;;
19386;SDS011;9829;48.142;16.382;2022-07-09T10:14:07;1.08;;;0.80;;
19386;SDS011;9829;48.142;16.382;2022-07-09T10:16:40;1.63;;;0.90;;
19386;SDS011;9829;48.142;16.382;2022-07-09T10:19:07;3.10;;;0.80;;
19386;SDS011;9829;48.142;16.382;2022-07-09T10:21:35;1.90;;;0.73;;
19386;SDS011;9829;48.142;16.382;2022-07-09T10:24:04;1.40;;;0.85;;
19386;SDS011;9829;48.142;16.382;2022-07-09T10:26:35;2.60;;;0.85;;
19386;SDS011;9829;48.142;16.382;2022-07-09T10:29:18;1.17;;;0.80;;
19386;SDS011;9829;48.142;16.382;2022-07-09T10:31:49;1.23;;;0.70;;
19386;SDS011;9829;48.142;16.382;2022-07-09T10:34:30;3.67;;;0.70;;
19386;SDS011;9829;48.142;16.382;2022-07-09T10:37:03;4.43;;;0.80;;
19386;SDS011;9829;48.142;16.382;2022-07-09T10:39:31;0.98;;;0.70;;
19386;SDS011;9829;48.142;16.382;2022-07-09T10:42:01;1.88;;;1.15;;
19386;SDS011;9829;48.142;16.382;2022-07-09T10:44:33;4.82;;;0.95;;
19386;SDS011;9829;48.142;16.382;2022-07-09T10:47:01;2.25;;;0.90;;
19386;SDS011;9829;48.142;16.382;2022-07-09T10:49:29;4.85;;;0.70;;
19386;SDS011;9829;48.142;16.382;2022-07-09T10:51:56;1.58;;;0.70;;
19386;SDS011;9829;48.142;16.382;2022-07-09T10:54:24;2.47;;;0.70;;
19386;SDS011;9829;48.142;16.382;2022-07-09T10:56:51;2.53;;;0.73;;
19386;SDS011;9829;48.142;16.382;2022-07-09T10:59:20;0.60;;;0.60;;
19386;SDS011;9829;48.142;16.382;2022-07-09T11:01:48;1.08;;;0.65;;
19386;SDS011;9829;48.142;16.382;2022-07-09T11:04:23;1.00;;;0.88;;
19386;SDS011;9829;48.142;16.382;2022-07-09T11:06:54;1.08;;;0.60;;
19386;SDS011;9829;48.142;16.382;2022-07-09T11:09:25;1.20;;;0.70;;
19386;SDS011;9829;48.142;16.382;2022-07-09T11:11:53;1.25;;;0.70;;
19386;SDS011;9829;48.142;16.382;2022-07-09T11:14:21;0.75;;;0.75;;
19386;SDS011;9829;48.142;16.382;2022-07-09T11:16:53;2.00;;;0.90;;
19386;SDS011;9829;48.142;16.382;2022-07-09T11:19:21;1.05;;;0.80;;
19386;SDS011;9829;48.142;16.382;2022-07-09T11:21:48;1.75;;;0.70;;
19386;SDS011;9829;48.142;16.382;2022-07-09T11:24:16;0.85;;;0.82;;
19386;SDS011;9829;48.142;16.382;2022-07-09T11:26:45;0.70;;;0.70;;
19386;SDS011;9829;48.142;16.382;2022-07-09T11:29:12;0.80;;;0.80;;
19386;SDS011;9829;48.142;16.382;2022-07-09T11:31:47;0.60;;;0.60;;
19386;SDS011;9829;48.142;16.382;2022-07-09T11:34:14;1.02;;;0.73;;
19386;SDS011;9829;48.142;16.382;2022-07-09T11:36:42;3.55;;;1.00;;
19386;SDS011;9829;48.142;16.382;2022-07-09T11:39:09;1.08;;;0.80;;
19386;SDS011;9829;48.142;16.382;2022-07-09T11:41:47;2.15;;;0.88;;
19386;SDS011;9829;48.142;16.382;2022-07-09T11:44:19;1.27;;;0.77;;
19386;SDS011;9829;48.142;16.382;2022-07-09T11:46:59;2.83;;;1.10;;
19386;SDS011;9829;48.142;16.382;2022-07-09T11:49:34;2.85;;;0.95;;
19386;SDS011;9829;48.142;16.382;2022-07-09T11:52:02;1.48;;;1.10;;
19386;SDS011;9829;48.142;16.382;2022-07-09T11:54:30;0.82;;;0.82;;
19386;SDS011;9829;48.142;16.382;2022-07-09T11:56:57;2.28;;;1.02;;
19386;SDS011;9829;48.142;16.382;2022-07-09T11:59:27;2.88;;;1.13;;
19386;SDS011;9829;48.142;16.382;2022-07-09T12:01:57;3.58;;;1.00;;
19386;SDS011;9829;48.142;16.382;2022-07-09T12:04:28;1.88;;;1.00;;
19386;SDS011;9829;48.142;16.382;2022-07-09T12:06:55;1.00;;;0.90;;
19386;SDS011;9829;48.142;16.382;2022-07-09T12:09:29;3.70;;;0.98;;
19386;SDS011;9829;48.142;16.382;2022-07-09T12:11:57;1.80;;;1.10;;
19386;SDS011;9829;48.142;16.382;2022-07-09T12:14:24;1.65;;;1.10;;
19386;SDS011;9829;48.142;16.382;2022-07-09T12:16:51;3.22;;;1.10;;
19386;SDS011;9829;48.142;16.382;2022-07-09T12:19:19;4.05;;;1.33;;
19386;SDS011;9829;48.142;16.382;2022-07-09T12:21:46;2.15;;;1.20;;
19386;SDS011;9829;48.142;16.382;2022-07-09T12:24:13;1.33;;;1.13;;
19386;SDS011;9829;48.142;16.382;2022-07-09T12:26:40;1.60;;;0.98;;
19386;SDS011;9829;48.142;16.382;2022-07-09T12:29:07;4.32;;;1.05;;
19386;SDS011;9829;48.142;16.382;2022-07-09T12:31:34;4.10;;;0.95;;
19386;SDS011;9829;48.142;16.382;2022-07-09T12:34:02;1.52;;;1.10;;
19386;SDS011;9829;48.142;16.382;2022-07-09T12:36:31;2.05;;;0.95;;
19386;SDS011;9829;48.142;16.382;2022-07-09T12:38:59;1.00;;;0.90;;
19386;SDS011;9829;48.142;16.382;2022-07-09T12:41:25;2.67;;;1.00;;
19386;SDS011;9829;48.142;16.382;2022-07-09T12:43:52;1.98;;;0.95;;
19386;SDS011;9829;48.142;16.382;2022-07-09T12:46:19;1.63;;;1.27;;
19386;SDS011;9829;48.142;16.382;2022-07-09T12:48:46;2.72;;;1.15;;
19386;SDS011;9829;48.142;16.382;2022-07-09T12:51:13;1.60;;;1.02;;
19386;SDS011;9829;48.142;16.382;2022-07-09T12:53:41;3.05;;;1.13;;
19386;SDS011;9829;48.142;16.382;2022-07-09T12:56:08;6.20;;;1.05;;
19386;SDS011;9829;48.142;16.382;2022-07-09T12:58:35;3.78;;;1.10;;
19386;SDS011;9829;48.142;16.382;2022-07-09T13:01:02;1.30;;;1.00;;
19386;SDS011;9829;48.142;16.382;2022-07-09T13:03:29;1.63;;;0.90;;
19386;SDS011;9829;48.142;16.382;2022-07-09T13:05:56;5.53;;;1.10;;
19386;SDS011;9829;48.142;16.382;2022-07-09T13:08:23;1.00;;;0.90;;
19386;SDS011;9829;48.142;16.382;2022-07-09T13:10:51;2.72;;;1.00;;
19386;SDS011;9829;48.142;16.382;2022-07-09T13:13:18;1.65;;;1.02;;
19386;SDS011;9829;48.142;16.382;2022-07-09T13:15:45;1.27;;;0.80;;
19386;SDS011;9829;48.142;16.382;2022-07-09T13:18:12;5.90;;;1.20;;
19386;SDS011;9829;48.142;16.382;2022-07-09T13:20:40;2.25;;;0.88;;
19386;SDS011;9829;48.142;16.382;2022-07-09T13:23:10;1.77;;;1.20;;
19386;SDS011;9829;48.142;16.382;2022-07-09T13:25:37;1.38;;;0.90;;
19386;SDS011;9829;48.142;16.382;2022-07-09T13:28:05;1.13;;;1.02;;
19386;SDS011;9829;48.142;16.382;2022-07-09T13:30:32;2.75;;;1.00;;
19386;SDS011;9829;48.142;16.382;2022-07-09T13:32:59;1.67;;;0.80;;
19386;SDS011;9829;48.142;16.382;2022-07-09T13:35:26;0.73;;;0.60;;
19386;SDS011;9829;48.142;16.382;2022-07-09T13:37:53;1.05;;;0.90;;
19386;SDS011;9829;48.142;16.382;2022-07-09T13:40:19;3.42;;;0.95;;
19386;SDS011;9829;48.142;16.382;2022-07-09T13:42:46;2.65;;;0.80;;
19386;SDS011;9829;48.142;16.382;2022-07-09T13:45:14;0.85;;;0.85;;
19386;SDS011;9829;48.142;16.382;2022-07-09T13:47:41;1.13;;;1.00;;
19386;SDS011;9829;48.142;16.382;2022-07-09T13:50:08;1.20;;;1.10;;
19386;SDS011;9829;48.142;16.382;2022-07-09T13:52:36;1.52;;;1.00;;
19386;SDS011;9829;48.142;16.382;2022-07-09T13:55:04;5.30;;;1.20;;
19386;SDS011;9829;48.142;16.382;2022-07-09T13:57:31;4.88;;;0.82;;
19386;SDS011;9829;48.142;16.382;2022-07-09T13:59:58;1.70;;;1.00;;
19386;SDS011;9829;48.142;16.382;2022-07-09T14:02:26;2.97;;;1.13;;
19386;SDS011;9829;48.142;16.382;2022-07-09T14:04:55;3.33;;;1.02;;
19386;SDS011;9829;48.142;16.382;2022-07-09T14:07:22;1.25;;;1.00;;
19386;SDS011;9829;48.142;16.382;2022-07-09T14:09:49;1.92;;;1.30;;
19386;SDS011;9829;48.142;16.382;2022-07-09T14:12:16;1.67;;;1.08;;
19386;SDS011;9829;48.142;16.382;2022-07-09T14:14:43;1.20;;;0.85;;
19386;SDS011;9829;48.142;16.382;2022-07-09T14:17:10;1.60;;;1.25;;
19386;SDS011;9829;48.142;16.382;2022-07-09T14:19:38;2.08;;;1.00;;
19386;SDS011;9829;48.142;16.382;2022-07-09T14:22:06;2.78;;;1.20;;
19386;SDS011;9829;48.142;16.382;2022-07-09T14:24:33;2.85;;;1.17;;
19386;SDS011;9829;48.142;16.382;2022-07-09T14:27:00;4.63;;;1.20;;
19386;SDS011;9829;48.142;16.382;2022-07-09T14:29:27;3.50;;;1.00;;
19386;SDS011;9829;48.142;16.382;2022-07-09T14:31:54;8.50;;;1.23;;
19386;SDS011;9829;48.142;16.382;2022-07-09T14:34:21;3.25;;;1.05;;
19386;SDS011;9829;48.142;16.382;2022-07-09T14:36:49;1.60;;;1.20;;
19386;SDS011;9829;48.142;16.382;2022-07-09T14:39:17;1.35;;;1.17;;
19386;SDS011;9829;48.142;16.382;2022-07-09T14:41:44;6.57;;;1.17;;
19386;SDS011;9829;48.142;16.382;2022-07-09T14:44:11;1.25;;;0.80;;
19386;SDS011;9829;48.142;16.382;2022-07-09T14:46:38;1.63;;;1.10;;
19386;SDS011;9829;48.142;16.382;2022-07-09T14:49:05;2.47;;;1.10;;
19386;SDS011;9829;48.142;16.382;2022-07-09T14:51:32;1.58;;;1.00;;
19386;SDS011;9829;48.142;16.382;2022-07-09T14:54:00;1.48;;;0.93;;